createdAt,value
2018-07-14T00:03:23.247Z,15.86
2018-07-14T00:09:28.905Z,15.98
2018-07-14T00:15:34.605Z,15.76
2018-07-14T00:21:40.261Z,15.72
2018-07-14T00:27:46.234Z,15.67
2018-07-14T00:33:52.376Z,15.43
2018-07-14T00:39:58.409Z,15.25
2018-07-14T00:46:04.236Z,15.33
2018-07-14T00:52:10.005Z,15.28
2018-07-14T00:58:15.705Z,15.26
2018-07-14T01:04:21.356Z,15.10
2018-07-14T01:10:27.030Z,15.09
2018-07-14T01:16:32.804Z,15.04
2018-07-14T01:22:38.571Z,14.76
2018-07-14T01:28:44.315Z,14.57
2018-07-14T01:34:49.987Z,14.55
2018-07-14T01:40:55.917Z,14.39
2018-07-14T01:47:01.658Z,14.43
2018-07-14T01:53:07.341Z,14.45
2018-07-14T01:59:13.185Z,14.45
2018-07-14T02:05:19.155Z,14.14
2018-07-14T02:11:25.061Z,14.19
2018-07-14T02:17:30.776Z,14.16
2018-07-14T02:23:36.468Z,14.21
2018-07-14T02:29:42.238Z,14.25
2018-07-14T02:35:48.024Z,14.25
2018-07-14T02:41:55.349Z,14.42
2018-07-14T02:48:01.067Z,14.67
2018-07-14T02:54:06.785Z,14.79
2018-07-14T03:00:12.419Z,14.95
2018-07-14T03:06:18.069Z,14.95
2018-07-14T03:12:23.689Z,15.00
2018-07-14T03:18:29.332Z,15.12
2018-07-14T03:24:35.054Z,15.25
2018-07-14T03:30:41.208Z,15.16
2018-07-14T03:36:47.017Z,15.19
2018-07-14T03:42:54.472Z,15.40
2018-07-14T03:49:00.170Z,15.43
2018-07-14T03:55:06.501Z,15.55
2018-07-14T04:01:12.152Z,15.52
2018-07-14T04:07:17.876Z,15.69
2018-07-14T04:13:23.760Z,15.57
2018-07-14T04:19:29.397Z,15.71
2018-07-14T04:25:41.401Z,15.58
2018-07-14T04:31:47.225Z,15.80
2018-07-14T04:37:53.510Z,15.61
2018-07-14T04:43:59.370Z,15.79
2018-07-14T04:50:05.333Z,15.74
2018-07-14T04:56:10.957Z,15.81
2018-07-14T05:02:16.616Z,15.89
2018-07-14T05:08:22.353Z,15.69
2018-07-14T05:14:28.466Z,15.86
2018-07-14T05:20:34.149Z,15.83
2018-07-14T05:26:39.775Z,15.97
2018-07-14T05:32:45.684Z,15.98
2018-07-14T05:38:51.701Z,16.30
2018-07-14T05:44:57.715Z,16.54
2018-07-14T05:51:03.531Z,16.45
2018-07-14T05:57:09.406Z,16.40
2018-07-14T06:03:15.192Z,16.61
2018-07-14T06:09:21.683Z,16.93
2018-07-14T06:15:27.349Z,17.24
2018-07-14T06:21:33.106Z,17.36
2018-07-14T06:27:38.881Z,17.09
2018-07-14T06:33:44.671Z,17.07
2018-07-14T06:39:51.308Z,17.41
2018-07-14T06:45:57.187Z,17.63
2018-07-14T06:52:02.838Z,18.22
2018-07-14T06:58:08.585Z,18.44
2018-07-14T07:04:14.448Z,18.61
2018-07-14T07:10:20.346Z,18.39
2018-07-14T07:16:26.349Z,18.53
2018-07-14T07:22:32.395Z,18.55
2018-07-14T07:28:38.044Z,18.19
2018-07-14T07:34:44.043Z,18.46
2018-07-14T07:40:49.808Z,19.32
2018-07-14T07:46:55.728Z,19.66
2018-07-14T07:53:01.614Z,19.93
2018-07-14T07:59:07.423Z,20.37
2018-07-14T08:05:13.281Z,20.76
2018-07-14T08:11:19.657Z,21.52
2018-07-14T08:17:26.101Z,21.27
2018-07-14T08:23:31.997Z,21.41
2018-07-14T08:29:37.666Z,21.35
2018-07-14T08:35:43.355Z,21.46
2018-07-14T08:41:49.279Z,21.46
2018-07-14T08:47:56.020Z,22.06
2018-07-14T08:54:01.678Z,22.20
2018-07-14T09:00:07.544Z,22.44
2018-07-14T09:06:13.600Z,22.97
2018-07-14T09:12:20.223Z,23.23
2018-07-14T09:18:26.389Z,23.83
2018-07-14T09:24:32.065Z,24.53
2018-07-14T09:30:37.755Z,24.55
2018-07-14T09:36:43.470Z,24.92
2018-07-14T09:42:49.144Z,25.76
2018-07-14T09:48:56.382Z,25.64
2018-07-14T09:55:02.220Z,25.52
2018-07-14T10:01:10.174Z,26.18
2018-07-14T10:07:15.798Z,26.97
2018-07-14T10:13:21.470Z,27.10
2018-07-14T10:19:27.173Z,27.49
2018-07-14T10:25:32.950Z,27.24
2018-07-14T10:31:38.781Z,27.74
2018-07-14T10:37:44.590Z,27.92
2018-07-14T10:43:50.671Z,28.67
2018-07-14T10:49:56.436Z,29.21
2018-07-14T10:56:02.438Z,29.30
2018-07-14T11:02:08.280Z,30.11
2018-07-14T11:08:13.978Z,30.95
2018-07-14T11:14:19.731Z,31.19
2018-07-14T11:20:25.942Z,31.88
2018-07-14T11:26:31.838Z,31.70
2018-07-14T11:32:37.511Z,31.47
2018-07-14T11:38:43.209Z,31.35
2018-07-14T11:44:48.855Z,32.78
2018-07-14T11:50:54.914Z,33.52
2018-07-14T11:57:00.612Z,32.66
2018-07-14T12:03:06.342Z,31.73
2018-07-14T12:09:11.988Z,31.39
2018-07-14T12:15:17.672Z,32.71
2018-07-14T12:21:24.863Z,31.45
2018-07-14T12:27:30.618Z,30.41
2018-07-14T12:33:36.352Z,31.57
2018-07-14T12:39:42.053Z,31.52
2018-07-14T12:45:47.799Z,33.47
2018-07-14T12:51:53.686Z,34.20
2018-07-14T12:57:59.427Z,33.85
2018-07-14T13:04:05.340Z,33.44
2018-07-14T13:10:11.121Z,31.74
2018-07-14T13:16:16.907Z,33.49
2018-07-14T13:22:23.737Z,33.68
2018-07-14T13:28:29.402Z,33.28
2018-07-14T13:34:35.264Z,33.70
2018-07-14T13:40:41.068Z,33.80
2018-07-14T13:46:47.015Z,33.96
2018-07-14T13:52:54.630Z,34.18
2018-07-14T13:59:00.571Z,34.42
2018-07-14T14:05:06.535Z,36.04
2018-07-14T14:11:12.280Z,33.53
2018-07-14T14:17:18.035Z,31.26
2018-07-14T14:23:24.678Z,31.64
2018-07-14T14:29:30.700Z,32.74
2018-07-14T14:35:36.617Z,32.90
2018-07-14T14:41:42.328Z,33.96
2018-07-14T14:47:48.150Z,34.57
2018-07-14T14:53:54.434Z,33.13
2018-07-14T15:00:00.144Z,33.44
2018-07-14T15:06:06.031Z,33.20
2018-07-14T15:12:11.861Z,33.96
2018-07-14T15:18:17.667Z,34.73
2018-07-14T15:24:25.547Z,34.41
2018-07-14T15:30:31.558Z,33.96
2018-07-14T15:36:37.312Z,34.27
2018-07-14T15:42:43.544Z,33.70
2018-07-14T15:48:49.195Z,33.10
2018-07-14T15:54:55.047Z,33.13
2018-07-14T16:01:00.725Z,32.63
2018-07-14T16:07:06.575Z,32.77
2018-07-14T16:13:12.248Z,33.01
2018-07-14T16:19:17.931Z,32.56
2018-07-14T16:25:24.268Z,32.19
2018-07-14T16:31:30.112Z,32.35
2018-07-14T16:37:36.196Z,33.39
2018-07-14T16:43:42.232Z,34.37
2018-07-14T16:49:47.847Z,36.16
2018-07-14T16:55:54.551Z,35.98
2018-07-14T17:02:00.413Z,34.78
2018-07-14T17:08:06.209Z,31.53
2018-07-14T17:14:12.477Z,29.69
2018-07-14T17:20:17.983Z,30.87
2018-07-14T17:26:25.687Z,30.06
2018-07-14T17:32:31.365Z,28.99
2018-07-14T17:38:37.537Z,30.00
2018-07-14T17:44:43.414Z,31.01
2018-07-14T17:50:49.051Z,31.69
2018-07-14T17:56:55.422Z,31.64
2018-07-14T18:03:01.406Z,31.68
2018-07-14T18:09:09.639Z,30.76
2018-07-14T18:15:15.454Z,30.50
2018-07-14T18:21:22.142Z,30.28
2018-07-14T18:27:27.979Z,30.17
2018-07-14T18:33:33.872Z,29.88
2018-07-14T18:39:39.721Z,29.64
2018-07-14T18:45:45.339Z,29.12
2018-07-14T18:51:52.815Z,27.88
2018-07-14T18:57:58.568Z,26.82
2018-07-14T19:04:04.335Z,25.82
2018-07-14T19:10:10.256Z,24.58
2018-07-14T19:16:15.993Z,24.26
2018-07-14T19:22:22.164Z,23.68
2018-07-14T19:28:28.006Z,23.11
2018-07-14T19:34:33.632Z,22.66
2018-07-14T19:40:39.370Z,22.52
2018-07-14T19:46:45.355Z,22.15
2018-07-14T19:52:51.509Z,21.95
2018-07-14T19:58:57.137Z,21.84
2018-07-14T20:05:02.788Z,21.49
2018-07-14T20:11:08.813Z,21.58
2018-07-14T20:17:15.378Z,21.43
2018-07-14T20:23:22.812Z,21.20
2018-07-14T20:29:28.524Z,21.18
2018-07-14T20:35:34.218Z,20.88
2018-07-14T20:41:39.934Z,20.37
2018-07-14T20:47:45.733Z,20.31
2018-07-14T20:53:52.504Z,19.89
2018-07-14T20:59:58.181Z,19.85
2018-07-14T21:06:03.922Z,19.51
2018-07-14T21:12:09.799Z,19.50
2018-07-14T21:18:15.606Z,19.12
2018-07-14T21:24:21.782Z,19.21
2018-07-14T21:30:27.696Z,19.33
2018-07-14T21:36:33.341Z,19.30
2018-07-14T21:42:39.058Z,19.12
2018-07-14T21:48:44.780Z,18.98
2018-07-14T21:54:50.792Z,18.80
2018-07-14T22:01:05.945Z,18.67
2018-07-14T22:07:11.675Z,18.38
2018-07-14T22:13:17.294Z,18.09
2018-07-14T22:19:23.804Z,17.92
2018-07-14T22:25:29.557Z,17.68
2018-07-14T22:31:35.232Z,17.51
2018-07-14T22:37:41.049Z,17.42
2018-07-14T22:43:46.730Z,17.10
2018-07-14T22:49:53.041Z,16.94
2018-07-14T22:55:58.874Z,16.89
2018-07-14T23:02:04.578Z,16.60
2018-07-14T23:08:10.294Z,16.67
2018-07-14T23:14:16.071Z,16.28
2018-07-14T23:20:21.877Z,16.26
2018-07-14T23:26:27.622Z,16.31
2018-07-14T23:32:33.451Z,15.98
2018-07-14T23:38:39.320Z,15.78
2018-07-14T23:44:44.953Z,15.85
2018-07-14T23:50:50.777Z,15.61
2018-07-14T23:56:56.793Z,15.55
